Time;durP1;ratioP1;P1;durP2;ratioP2;P2;SDS_P1;SDS_P2;PMS_P1;PMS_P2;Temp;Humidity;BMP_temperature;BMP_pressure;BME280_temperature;BME280_humidity;BME280_pressure;Samples;Min_cycle;Max_cycle;Signal;HPM_P1;HPM_P2
2023/04/28 00:00:01;;;;;;;2.20;1.20;;;18.30;66.60;;;;;;5042180;27;45388;-70
2023/04/28 00:02:28;;;;;;;1.77;1.13;;;18.30;66.30;;;;;;5030499;28;45304;-70
2023/04/28 00:04:54;;;;;;;2.15;1.52;;;18.30;65.40;;;;;;5059788;27;45495;-69
2023/04/28 00:07:22;;;;;;;2.05;1.42;;;18.30;66.80;;;;;;5035529;28;46094;-70
2023/04/28 00:09:49;;;;;;;2.33;1.38;;;18.30;66.10;;;;;;5039852;27;45362;-69
2023/04/28 00:12:16;;;;;;;2.28;1.52;;;18.30;67.00;;;;;;5046069;27;45321;-69
2023/04/28 00:14:43;;;;;;;1.83;1.50;;;18.30;66.60;;;;;;5042243;27;45565;-69
2023/04/28 00:17:10;;;;;;;2.70;1.55;;;18.30;65.90;;;;;;5057497;27;46478;-69
2023/04/28 00:19:37;;;;;;;1.98;1.58;;;18.30;66.10;;;;;;5057200;27;45395;-70
2023/04/28 00:22:05;;;;;;;1.95;1.27;;;18.30;65.70;;;;;;5054693;27;45360;-69
2023/04/28 00:24:35;;;;;;;1.77;1.27;;;18.30;66.60;;;;;;5043313;27;45388;-70
2023/04/28 00:27:02;;;;;;;1.73;1.40;;;18.30;66.60;;;;;;5047857;27;48563;-70
2023/04/28 00:29:28;;;;;;;2.15;1.50;;;18.30;66.70;;;;;;5048235;27;45637;-69
2023/04/28 00:31:55;;;;;;;2.38;1.50;;;18.30;67.00;;;;;;5065951;27;45313;-69
2023/04/28 00:34:22;;;;;;;2.42;1.60;;;18.30;66.90;;;;;;5050400;27;45280;-69
2023/04/28 00:36:49;;;;;;;2.15;1.40;;;18.30;66.60;;;;;;5038588;27;47349;-69
2023/04/28 00:39:17;;;;;;;3.42;1.48;;;18.30;67.00;;;;;;5054491;27;45493;-69
2023/04/28 00:41:45;;;;;;;2.40;1.33;;;18.30;66.90;;;;;;5055075;27;45363;-69
2023/04/28 00:44:12;;;;;;;2.03;1.40;;;18.30;66.40;;;;;;5039576;28;45568;-69
2023/04/28 00:46:38;;;;;;;1.63;1.20;;;18.30;66.20;;;;;;5052277;27;46677;-69
2023/04/28 00:49:05;;;;;;;1.92;1.58;;;18.30;66.40;;;;;;5031387;28;45467;-69
2023/04/28 00:51:33;;;;;;;2.08;1.40;;;18.30;66.40;;;;;;5049788;27;45332;-69
2023/04/28 00:54:00;;;;;;;3.10;1.67;;;18.30;66.40;;;;;;5040408;28;45497;-69
2023/04/28 00:56:29;;;;;;;1.50;1.30;;;18.30;66.30;;;;;;5048469;27;47383;-70
2023/04/28 00:58:58;;;;;;;3.58;1.70;;;18.30;66.10;;;;;;5042768;27;45513;-69
2023/04/28 01:01:25;;;;;;;3.42;1.80;;;18.30;65.70;;;;;;5048090;27;45529;-69
2023/04/28 01:03:52;;;;;;;2.08;1.40;;;18.30;66.80;;;;;;5071999;27;45404;-69
2023/04/28 01:06:19;;;;;;;1.60;1.30;;;18.40;67.20;;;;;;5061984;27;46267;-70
2023/04/28 01:08:48;;;;;;;1.90;1.50;;;18.30;67.50;;;;;;5039004;28;45332;-70
2023/04/28 01:11:15;;;;;;;2.58;1.30;;;18.40;67.60;;;;;;5029164;28;45478;-69
2023/04/28 01:13:42;;;;;;;1.70;1.60;;;18.30;67.60;;;;;;5040279;28;45373;-70
2023/04/28 01:16:11;;;;;;;1.65;1.30;;;18.30;68.00;;;;;;5040607;27;45472;-69
2023/04/28 01:18:38;;;;;;;2.85;1.73;;;18.30;68.40;;;;;;5037256;28;45483;-69
2023/04/28 01:21:05;;;;;;;1.70;1.38;;;18.30;68.40;;;;;;5047593;27;45344;-69
2023/04/28 01:23:32;;;;;;;2.42;1.50;;;18.30;68.00;;;;;;5042806;27;45536;-69
2023/04/28 01:26:00;;;;;;;1.77;1.25;;;18.30;67.70;;;;;;5032413;27;46366;-69
2023/04/28 01:28:27;;;;;;;1.50;1.20;;;18.30;67.40;;;;;;5037243;27;45355;-69
2023/04/28 01:30:55;;;;;;;1.65;1.20;;;18.30;67.70;;;;;;5047579;27;45277;-70
2023/04/28 01:33:22;;;;;;;2.15;1.55;;;18.30;67.60;;;;;;5045101;27;45644;-69
2023/04/28 01:35:48;;;;;;;2.75;1.52;;;18.30;67.20;;;;;;5075001;27;45393;-69
2023/04/28 01:38:15;;;;;;;2.28;1.45;;;18.30;67.10;;;;;;5042524;27;45361;-69
2023/04/28 01:40:42;;;;;;;1.90;1.30;;;18.30;68.20;;;;;;5042434;27;45336;-70
2023/04/28 01:43:10;;;;;;;1.85;1.58;;;18.30;67.50;;;;;;5038798;27;45249;-69
2023/04/28 01:45:37;;;;;;;2.40;1.55;;;18.30;67.80;;;;;;5041467;27;48136;-69
2023/04/28 01:48:04;;;;;;;1.55;1.27;;;18.30;67.70;;;;;;5041262;27;45382;-70
2023/04/28 01:50:30;;;;;;;2.30;1.35;;;18.30;68.10;;;;;;5035139;28;45438;-69
2023/04/28 01:52:57;;;;;;;2.28;1.40;;;18.30;68.50;;;;;;5060803;27;45321;-69
2023/04/28 01:55:24;;;;;;;1.80;1.45;;;18.40;68.50;;;;;;5069743;27;47528;-70
2023/04/28 01:57:51;;;;;;;1.65;1.30;;;18.40;68.70;;;;;;5039808;28;45329;-69
2023/04/28 02:00:19;;;;;;;2.17;1.30;;;18.40;68.70;;;;;;5040126;27;45345;-69
2023/04/28 02:02:46;;;;;;;1.48;1.25;;;18.40;68.40;;;;;;5075535;27;45313;-69
2023/04/28 02:05:13;;;;;;;1.98;1.15;;;18.40;68.00;;;;;;5041830;27;46912;-69
2023/04/28 02:07:40;;;;;;;1.40;1.30;;;18.40;67.80;;;;;;5065403;27;45263;-69
2023/04/28 02:10:07;;;;;;;1.70;1.27;;;18.40;68.00;;;;;;5062091;27;45233;-69
2023/04/28 02:12:34;;;;;;;2.42;1.50;;;18.40;68.20;;;;;;5042126;27;45308;-69
2023/04/28 02:15:01;;;;;;;1.48;1.17;;;18.40;68.30;;;;;;5046823;27;46428;-70
2023/04/28 02:17:31;;;;;;;1.88;1.33;;;18.30;68.20;;;;;;5065855;27;45348;-69
2023/04/28 02:19:58;;;;;;;2.22;1.25;;;18.30;68.10;;;;;;5046562;27;45325;-69
2023/04/28 02:22:25;;;;;;;2.13;1.25;;;18.30;68.20;;;;;;5083482;27;45518;-69
2023/04/28 02:24:52;;;;;;;2.97;1.30;;;18.30;68.60;;;;;;5067998;27;47830;-69
2023/04/28 02:27:19;;;;;;;2.92;1.40;;;18.30;68.90;;;;;;5047841;27;45268;-69
2023/04/28 02:29:46;;;;;;;2.38;1.42;;;18.30;68.70;;;;;;5101066;27;45256;-69
2023/04/28 02:32:13;;;;;;;2.35;1.20;;;18.40;68.90;;;;;;5046839;27;45263;-69
2023/04/28 02:34:41;;;;;;;2.70;1.25;;;18.30;69.00;;;;;;5055246;27;48130;-70
2023/04/28 02:37:07;;;;;;;2.70;1.10;;;18.40;69.20;;;;;;5041618;27;45322;-70
2023/04/28 02:39:34;;;;;;;2.25;1.17;;;18.40;69.20;;;;;;5042082;27;45452;-69
2023/04/28 02:42:04;;;;;;;2.40;1.30;;;18.40;69.40;;;;;;5048512;27;45611;-69
2023/04/28 02:44:30;;;;;;;2.53;1.40;;;18.40;69.30;;;;;;5041676;27;45350;-69
2023/04/28 02:46:57;;;;;;;1.75;1.10;;;18.40;69.10;;;;;;5057011;27;45277;-69
2023/04/28 02:49:24;;;;;;;1.10;1.00;;;18.40;68.60;;;;;;5041806;27;45564;-69
2023/04/28 02:51:52;;;;;;;1.83;1.40;;;18.40;68.80;;;;;;5038449;27;45613;-69
2023/04/28 02:54:26;;;;;;;2.35;1.30;;;18.40;68.70;;;;;;5070103;27;46590;-69
2023/04/28 02:56:52;;;;;;;1.65;1.05;;;18.40;68.80;;;;;;5070418;27;45337;-70
2023/04/28 02:59:19;;;;;;;3.70;1.20;;;18.40;68.80;;;;;;5062783;27;45309;-69
2023/04/28 03:01:46;;;;;;;2.22;1.23;;;18.40;68.80;;;;;;5047763;27;45564;-69
2023/04/28 03:04:13;;;;;;;3.03;1.50;;;18.40;68.70;;;;;;5039067;28;46660;-70
2023/04/28 03:06:40;;;;;;;1.60;1.17;;;18.30;68.70;;;;;;5085301;27;45710;-69
2023/04/28 03:09:09;;;;;;;2.40;1.27;;;18.40;69.20;;;;;;5032016;28;45501;-69
2023/04/28 03:11:35;;;;;;;1.05;0.93;;;18.40;69.20;;;;;;5039527;28;45484;-69
2023/04/28 03:14:02;;;;;;;3.03;1.10;;;18.40;69.20;;;;;;5038748;27;46351;-69
2023/04/28 03:16:29;;;;;;;1.75;1.20;;;18.40;69.60;;;;;;5039621;28;45338;-69
2023/04/28 03:18:55;;;;;;;2.35;1.38;;;18.40;70.00;;;;;;5038236;28;45335;-69
2023/04/28 03:21:23;;;;;;;1.88;1.13;;;18.40;70.10;;;;;;5039502;27;45480;-70
2023/04/28 03:23:49;;;;;;;2.92;1.30;;;18.40;70.20;;;;;;5038735;28;45540;-70
2023/04/28 03:26:17;;;;;;;3.78;1.27;;;18.40;70.30;;;;;;5033103;28;45528;-70
2023/04/28 03:28:44;;;;;;;2.20;1.10;;;18.30;70.00;;;;;;5038973;28;45298;-70
2023/04/28 03:31:11;;;;;;;1.70;1.10;;;18.30;70.00;;;;;;5039379;28;45258;-69
2023/04/28 03:33:38;;;;;;;1.70;1.10;;;18.30;69.80;;;;;;5039048;28;47111;-69
2023/04/28 03:36:05;;;;;;;1.42;1.02;;;18.30;69.50;;;;;;5039828;27;45475;-70
2023/04/28 03:38:32;;;;;;;1.83;1.30;;;18.40;69.50;;;;;;5039259;28;45406;-69
2023/04/28 03:40:58;;;;;;;0.93;0.90;;;18.30;69.30;;;;;;5055055;27;45764;-69
2023/04/28 03:43:27;;;;;;;2.72;1.40;;;18.30;69.40;;;;;;5040826;27;46543;-69
2023/04/28 03:45:53;;;;;;;2.83;1.25;;;18.30;69.40;;;;;;5085475;27;45455;-69
2023/04/28 03:48:20;;;;;;;1.73;1.10;;;18.30;69.40;;;;;;5036435;27;45317;-69
2023/04/28 03:50:47;;;;;;;1.15;1.05;;;18.30;69.20;;;;;;5044765;27;45241;-69
2023/04/28 03:53:14;;;;;;;1.17;0.95;;;18.30;69.60;;;;;;5071342;27;47586;-69
2023/04/28 03:55:40;;;;;;;1.38;1.15;;;18.30;70.00;;;;;;5072710;27;45310;-69
2023/04/28 03:58:07;;;;;;;1.40;1.20;;;18.30;70.00;;;;;;5084675;27;45207;-69
2023/04/28 04:00:35;;;;;;;1.27;1.15;;;18.30;70.30;;;;;;5035176;28;45366;-69
2023/04/28 04:03:02;;;;;;;1.60;1.10;;;18.30;70.30;;;;;;5048642;27;48104;-69
2023/04/28 04:05:29;;;;;;;1.10;1.00;;;18.30;70.30;;;;;;5100519;27;45407;-69
2023/04/28 04:07:56;;;;;;;1.10;1.00;;;18.30;70.20;;;;;;5048499;27;45433;-69
2023/04/28 04:10:23;;;;;;;1.70;1.00;;;18.30;70.40;;;;;;5044056;28;45421;-69
2023/04/28 04:12:50;;;;;;;1.98;1.10;;;18.30;70.30;;;;;;5041149;27;45463;-69
2023/04/28 04:15:17;;;;;;;1.40;0.90;;;18.30;70.00;;;;;;5064838;27;45582;-70
2023/04/28 04:17:45;;;;;;;1.80;1.35;;;18.40;70.00;;;;;;5040596;27;45478;-70
2023/04/28 04:20:12;;;;;;;2.95;1.38;;;18.30;69.60;;;;;;5069315;27;45306;-69
2023/04/28 04:22:39;;;;;;;1.83;1.17;;;18.30;69.70;;;;;;5043219;27;47548;-70
2023/04/28 04:25:07;;;;;;;1.45;1.20;;;18.30;69.50;;;;;;5043771;27;45404;-70
2023/04/28 04:27:33;;;;;;;2.30;1.00;;;18.30;69.40;;;;;;5041549;27;45290;-69
2023/04/28 04:30:00;;;;;;;1.77;1.35;;;18.30;69.40;;;;;;5045634;27;45364;-69
2023/04/28 04:32:27;;;;;;;1.15;0.85;;;18.30;69.60;;;;;;5037566;27;46554;-70
2023/04/28 04:34:56;;;;;;;1.45;0.95;;;18.30;69.50;;;;;;5061063;27;45310;-70
2023/04/28 04:37:23;;;;;;;1.33;0.70;;;18.30;70.20;;;;;;5093205;27;45503;-69
2023/04/28 04:39:50;;;;;;;2.13;1.20;;;18.30;70.20;;;;;;5041745;28;45424;-70
2023/04/28 04:42:16;;;;;;;1.40;1.00;;;18.30;70.40;;;;;;5084680;27;47413;-70
2023/04/28 04:44:43;;;;;;;1.40;1.15;;;18.40;70.50;;;;;;5040863;28;45459;-70
2023/04/28 04:47:10;;;;;;;1.25;1.02;;;18.30;70.30;;;;;;5070547;27;45286;-70
2023/04/28 04:49:37;;;;;;;1.83;1.10;;;18.40;70.40;;;;;;5050154;27;45470;-70
2023/04/28 04:52:05;;;;;;;1.30;1.10;;;18.30;70.40;;;;;;5050455;27;47747;-69
2023/04/28 04:54:32;;;;;;;3.22;1.30;;;18.30;70.30;;;;;;5066536;27;45271;-70
2023/04/28 04:56:59;;;;;;;1.17;0.98;;;18.30;70.30;;;;;;5061626;27;45374;-69
2023/04/28 04:59:26;;;;;;;2.20;1.13;;;18.30;70.00;;;;;;5067578;27;45271;-69
2023/04/28 05:01:52;;;;;;;1.27;0.98;;;18.30;70.10;;;;;;5045139;27;45613;-69
2023/04/28 05:04:19;;;;;;;0.80;0.80;;;18.30;69.90;;;;;;5046051;27;45404;-70
2023/04/28 05:06:46;;;;;;;2.03;0.90;;;18.30;69.80;;;;;;5052910;27;45494;-70
2023/04/28 05:09:14;;;;;;;2.13;0.98;;;18.30;69.80;;;;;;5041074;27;45359;-69
2023/04/28 05:11:41;;;;;;;3.35;1.20;;;18.30;69.80;;;;;;5040594;28;46589;-70
2023/04/28 05:14:08;;;;;;;1.20;0.98;;;18.30;69.70;;;;;;5040322;28;45530;-70
2023/04/28 05:16:35;;;;;;;1.25;1.02;;;18.30;69.50;;;;;;5040010;27;45321;-69
2023/04/28 05:19:01;;;;;;;2.80;0.98;;;18.30;69.70;;;;;;5040308;27;45389;-70
2023/04/28 05:21:28;;;;;;;1.00;0.88;;;18.30;69.90;;;;;;5040772;28;46394;-70
2023/04/28 05:23:56;;;;;;;1.63;1.10;;;18.30;70.00;;;;;;5038180;28;45316;-69
2023/04/28 05:26:24;;;;;;;3.05;1.10;;;18.40;70.00;;;;;;5056408;27;45562;-69
2023/04/28 05:28:51;;;;;;;1.55;1.20;;;18.40;70.30;;;;;;5047173;27;45373;-69
2023/04/28 05:31:18;;;;;;;1.83;1.02;;;18.30;70.40;;;;;;5063262;27;46597;-69
2023/04/28 05:33:44;;;;;;;1.52;1.00;;;18.40;70.50;;;;;;5032467;27;45334;-70
2023/04/28 05:36:15;;;;;;;4.65;1.00;;;18.40;70.70;;;;;;5033966;28;45332;-70
2023/04/28 05:38:42;;;;;;;5.05;1.30;;;18.30;70.40;;;;;;5031613;28;45355;-70
2023/04/28 05:41:09;;;;;;;1.27;1.10;;;18.30;70.20;;;;;;5036013;27;48563;-69
2023/04/28 05:43:37;;;;;;;1.42;1.00;;;18.30;70.40;;;;;;5058770;27;45295;-69
2023/04/28 05:46:04;;;;;;;2.70;1.23;;;18.30;70.40;;;;;;5038682;28;45393;-70
2023/04/28 05:48:31;;;;;;;1.45;0.93;;;18.30;70.30;;;;;;5037497;27;45512;-69
2023/04/28 05:50:58;;;;;;;1.50;1.05;;;18.30;70.30;;;;;;5040531;28;47099;-69
2023/04/28 05:53:24;;;;;;;1.38;1.13;;;18.30;70.30;;;;;;5041559;27;45360;-69
2023/04/28 05:55:51;;;;;;;2.35;1.10;;;18.30;70.10;;;;;;5035552;28;45306;-69
2023/04/28 05:58:18;;;;;;;1.77;1.20;;;18.30;70.50;;;;;;5033294;27;45387;-70
2023/04/28 06:00:46;;;;;;;2.25;1.05;;;18.30;70.50;;;;;;5039039;28;45478;-70
2023/04/28 06:03:14;;;;;;;1.48;1.20;;;18.30;70.20;;;;;;5048935;27;45479;-70
2023/04/28 06:05:41;;;;;;;0.90;0.70;;;18.30;70.70;;;;;;5054183;27;45466;-70
2023/04/28 06:08:08;;;;;;;1.10;1.00;;;18.30;71.90;;;;;;5031403;27;45480;-70
2023/04/28 06:10:34;;;;;;;1.48;0.98;;;18.30;70.80;;;;;;5045418;27;45525;-70
2023/04/28 06:13:03;;;;;;;1.52;1.00;;;18.30;71.00;;;;;;5039192;28;45478;-70
2023/04/28 06:15:30;;;;;;;1.63;1.10;;;18.30;70.80;;;;;;5036195;27;45294;-70
2023/04/28 06:17:58;;;;;;;1.52;0.90;;;18.30;71.10;;;;;;5039305;28;45391;-70
2023/04/28 06:20:25;;;;;;;1.70;1.00;;;18.30;71.00;;;;;;5061625;27;47311;-70
2023/04/28 06:22:52;;;;;;;2.00;1.33;;;18.30;70.80;;;;;;5040041;28;45286;-70
2023/04/28 06:25:19;;;;;;;1.23;0.95;;;18.30;70.60;;;;;;5040890;27;45496;-70
2023/04/28 06:27:46;;;;;;;1.23;0.90;;;18.30;70.50;;;;;;5040391;28;45556;-69
2023/04/28 06:30:18;;;;;;;1.08;0.98;;;18.30;70.70;;;;;;5073877;27;45734;-70
2023/04/28 06:32:45;;;;;;;1.20;1.00;;;18.30;70.70;;;;;;5029617;28;45389;-71
2023/04/28 06:35:13;;;;;;;1.80;1.00;;;18.30;70.40;;;;;;5026128;27;45628;-70
2023/04/28 06:37:40;;;;;;;1.10;0.95;;;18.30;70.50;;;;;;5026103;28;45642;-70
2023/04/28 06:40:08;;;;;;;0.93;0.85;;;18.30;70.80;;;;;;5028830;27;46470;-70
2023/04/28 06:42:35;;;;;;;2.08;1.10;;;18.30;70.70;;;;;;5022417;28;45605;-71
2023/04/28 06:45:01;;;;;;;1.88;1.15;;;18.30;70.80;;;;;;5026376;27;45463;-70
2023/04/28 06:47:28;;;;;;;1.35;1.13;;;18.30;70.90;;;;;;5019822;28;45641;-70
2023/04/28 06:49:56;;;;;;;1.98;1.08;;;18.30;71.20;;;;;;5021594;28;47249;-70
2023/04/28 06:52:27;;;;;;;1.45;0.90;;;18.30;70.60;;;;;;5023326;28;45956;-70
2023/04/28 06:54:53;;;;;;;1.55;1.10;;;18.40;70.70;;;;;;5031344;27;45585;-69
2023/04/28 06:57:20;;;;;;;2.58;1.10;;;18.40;70.40;;;;;;5030571;27;45333;-70
2023/04/28 06:59:47;;;;;;;2.65;1.00;;;18.40;70.10;;;;;;5059072;27;46880;-70
2023/04/28 07:02:14;;;;;;;1.92;1.08;;;18.40;70.50;;;;;;5029313;27;45683;-70
2023/04/28 07:04:41;;;;;;;2.35;1.17;;;18.40;70.30;;;;;;5034084;27;45335;-69
2023/04/28 07:07:08;;;;;;;1.15;1.05;;;18.40;70.10;;;;;;5040181;27;45559;-70
2023/04/28 07:09:37;;;;;;;2.72;1.00;;;18.40;70.50;;;;;;5049206;27;47696;-70
2023/04/28 07:12:04;;;;;;;1.30;0.95;;;18.40;69.60;;;;;;5059392;27;45998;-70
2023/04/28 07:14:31;;;;;;;1.33;1.10;;;18.40;69.60;;;;;;5031885;27;45326;-69
2023/04/28 07:16:58;;;;;;;2.53;1.00;;;18.40;69.60;;;;;;5035058;27;45444;-69
2023/04/28 07:19:25;;;;;;;1.60;1.17;;;18.40;69.70;;;;;;5033272;28;46614;-70
2023/04/28 07:21:51;;;;;;;3.65;1.27;;;18.40;69.50;;;;;;5054366;27;45510;-70
2023/04/28 07:24:18;;;;;;;2.03;1.45;;;18.40;69.20;;;;;;5037936;27;45342;-70
2023/04/28 07:26:46;;;;;;;2.65;1.50;;;18.40;68.70;;;;;;5031175;28;45387;-70
2023/04/28 07:29:14;;;;;;;1.98;1.30;;;18.40;68.60;;;;;;5032942;27;45282;-70
2023/04/28 07:31:40;;;;;;;2.88;1.58;;;18.50;68.40;;;;;;5039885;27;45513;-70
2023/04/28 07:34:07;;;;;;;1.67;1.30;;;18.50;68.30;;;;;;5035465;27;45592;-69
2023/04/28 07:36:35;;;;;;;1.50;1.33;;;18.50;68.20;;;;;;5037042;27;45483;-71
2023/04/28 07:39:02;;;;;;;2.15;1.40;;;18.50;68.10;;;;;;5038003;28;46438;-70
2023/04/28 07:41:29;;;;;;;1.35;1.25;;;18.50;68.00;;;;;;5043038;27;45309;-70
2023/04/28 07:43:57;;;;;;;4.43;1.48;;;18.50;67.80;;;;;;5046459;27;45244;-70
2023/04/28 07:46:23;;;;;;;3.78;1.98;;;18.50;67.70;;;;;;5032866;27;45402;-70
2023/04/28 07:48:50;;;;;;;2.67;1.58;;;18.50;67.70;;;;;;5040032;27;47390;-70
2023/04/28 07:51:17;;;;;;;2.53;1.45;;;18.60;67.80;;;;;;5040446;28;45555;-69
2023/04/28 07:53:44;;;;;;;2.05;1.25;;;18.60;68.40;;;;;;5040624;28;45521;-70
2023/04/28 07:56:11;;;;;;;2.55;1.40;;;18.60;68.90;;;;;;5041019;28;45436;-70
2023/04/28 07:58:37;;;;;;;1.95;1.40;;;18.60;69.20;;;;;;5038608;28;46596;-70
2023/04/28 08:01:05;;;;;;;2.10;1.27;;;18.60;69.40;;;;;;5041596;28;45314;-71
2023/04/28 08:03:32;;;;;;;1.17;1.02;;;18.60;69.70;;;;;;5042100;28;45267;-70
2023/04/28 08:06:00;;;;;;;4.13;1.40;;;18.60;69.90;;;;;;5042115;28;45287;-70
2023/04/28 08:08:27;;;;;;;1.48;1.33;;;18.60;70.00;;;;;;5042070;28;45577;-70
2023/04/28 08:10:54;;;;;;;3.85;1.58;;;18.60;70.30;;;;;;5041351;28;45373;-70
2023/04/28 08:13:21;;;;;;;1.45;1.30;;;18.60;70.60;;;;;;5040326;28;45528;-69
2023/04/28 08:15:48;;;;;;;1.58;1.30;;;18.60;70.60;;;;;;5038847;28;45182;-70
2023/04/28 08:18:16;;;;;;;2.60;1.40;;;18.60;70.80;;;;;;5041663;28;48100;-70
2023/04/28 08:20:43;;;;;;;1.85;1.10;;;18.60;70.90;;;;;;5041785;28;45358;-70
2023/04/28 08:23:10;;;;;;;2.25;1.35;;;18.60;71.00;;;;;;5041460;28;45321;-69
2023/04/28 08:25:37;;;;;;;1.50;1.40;;;18.60;71.00;;;;;;5040971;28;45326;-69
2023/04/28 08:28:05;;;;;;;2.42;1.60;;;18.60;71.20;;;;;;5041329;28;47520;-70
2023/04/28 08:30:32;;;;;;;1.50;1.25;;;18.60;71.30;;;;;;5042494;27;45324;-69
2023/04/28 08:32:59;;;;;;;2.25;1.52;;;18.60;71.40;;;;;;5040565;28;45562;-69
2023/04/28 08:35:27;;;;;;;1.50;1.30;;;18.60;71.30;;;;;;5040986;28;45540;-69
2023/04/28 08:37:54;;;;;;;1.98;1.20;;;18.60;71.70;;;;;;5041476;28;47074;-70
2023/04/28 08:40:23;;;;;;;1.98;1.30;;;18.60;71.60;;;;;;5041307;28;45304;-70
2023/04/28 08:42:50;;;;;;;1.88;1.20;;;18.60;71.80;;;;;;5041445;28;45595;-70
2023/04/28 08:45:16;;;;;;;2.58;1.45;;;18.60;71.90;;;;;;5039701;28;45257;-71
2023/04/28 08:47:46;;;;;;;2.08;1.27;;;18.60;71.90;;;;;;5038222;28;47480;-70
2023/04/28 08:50:14;;;;;;;2.10;1.30;;;18.60;72.10;;;;;;5041008;28;45614;-69
2023/04/28 08:52:42;;;;;;;2.00;1.23;;;18.60;72.20;;;;;;5040991;28;45306;-71
2023/04/28 08:55:11;;;;;;;1.85;1.30;;;18.60;72.30;;;;;;5032536;28;45478;-70
2023/04/28 08:57:39;;;;;;;1.60;1.40;;;18.60;72.20;;;;;;5041059;28;48693;-70
2023/04/28 09:00:07;;;;;;;2.78;1.48;;;18.60;72.20;;;;;;5041153;28;45428;-71
2023/04/28 09:02:34;;;;;;;1.30;1.10;;;18.60;72.40;;;;;;5041402;28;45422;-70
2023/04/28 09:05:01;;;;;;;1.98;1.48;;;18.60;72.50;;;;;;5037418;28;45337;-70
2023/04/28 09:07:28;;;;;;;3.10;1.50;;;18.60;72.60;;;;;;5041402;28;45439;-70
2023/04/28 09:10:18;;;;;;;2.03;1.50;;;18.60;72.80;;;;;;5040803;28;46125;-70
2023/04/28 09:12:45;;;;;;;2.58;1.30;;;18.60;72.90;;;;;;5039290;28;45349;-69
2023/04/28 09:15:26;;;;;;;2.10;1.27;;;18.60;72.90;;;;;;5036367;28;45294;-70
2023/04/28 09:17:53;;;;;;;1.50;1.15;;;18.60;73.10;;;;;;5040894;28;46562;-70
2023/04/28 09:20:21;;;;;;;1.60;1.48;;;18.60;73.30;;;;;;5040959;28;45408;-70
2023/04/28 09:22:48;;;;;;;2.42;1.40;;;18.60;73.30;;;;;;5043005;28;45320;-70
2023/04/28 09:25:17;;;;;;;3.05;1.40;;;18.60;73.50;;;;;;5040424;28;45414;-69
2023/04/28 09:27:44;;;;;;;1.38;1.20;;;18.60;73.50;;;;;;5040714;28;46552;-69
2023/04/28 09:30:12;;;;;;;2.13;1.58;;;18.60;73.60;;;;;;5040685;27;45315;-70
2023/04/28 09:32:39;;;;;;;2.58;1.73;;;18.60;73.60;;;;;;5040940;28;45370;-69
2023/04/28 09:35:06;;;;;;;3.28;1.30;;;18.50;73.60;;;;;;5040250;27;45633;-69
2023/04/28 09:37:34;;;;;;;1.33;1.17;;;18.60;74.00;;;;;;5040552;27;46321;-70
2023/04/28 09:40:06;;;;;;;2.28;1.48;;;18.60;73.90;;;;;;5037235;28;45472;-70
2023/04/28 09:42:35;;;;;;;2.53;1.60;;;18.60;74.00;;;;;;5040790;28;45324;-69
2023/04/28 09:45:03;;;;;;;3.50;1.33;;;18.60;74.00;;;;;;5038513;28;45313;-70
2023/04/28 09:47:32;;;;;;;1.55;1.30;;;18.60;74.20;;;;;;5040399;28;46570;-69
2023/04/28 09:50:00;;;;;;;1.65;1.00;;;18.60;74.20;;;;;;5039084;28;45232;-70
2023/04/28 09:52:27;;;;;;;2.00;1.30;;;18.60;74.20;;;;;;5040914;28;45580;-70
2023/04/28 09:54:55;;;;;;;3.13;1.35;;;18.60;74.20;;;;;;5040298;27;45353;-70
2023/04/28 09:57:23;;;;;;;2.03;1.20;;;18.60;74.30;;;;;;5036355;28;45321;-69
2023/04/28 09:59:53;;;;;;;2.20;1.23;;;18.60;74.20;;;;;;5040412;28;45282;-70
2023/04/28 10:02:21;;;;;;;2.80;1.30;;;18.60;74.50;;;;;;5040455;28;45374;-71
2023/04/28 10:04:50;;;;;;;1.73;1.38;;;18.60;74.50;;;;;;5039519;28;45454;-70
2023/04/28 10:07:19;;;;;;;2.17;1.33;;;18.60;74.90;;;;;;5040707;28;47383;-70
2023/04/28 10:09:49;;;;;;;2.78;1.40;;;18.60;74.90;;;;;;5040191;28;45456;-70
2023/04/28 10:12:16;;;;;;;1.90;1.30;;;18.60;75.20;;;;;;5040098;28;45512;-70
2023/04/28 10:14:44;;;;;;;1.30;1.10;;;18.60;75.20;;;;;;5038130;28;45297;-70
2023/04/28 10:17:13;;;;;;;2.25;1.35;;;18.60;75.10;;;;;;5040491;28;45323;-69
2023/04/28 10:19:41;;;;;;;2.50;1.02;;;18.60;75.50;;;;;;5040695;27;45331;-70
2023/04/28 10:22:32;;;;;;;0.90;0.90;;;18.60;75.40;;;;;;5040012;28;45480;-70
2023/04/28 10:25:21;;;;;;;1.10;1.00;;;18.60;75.60;;;;;;5039436;27;45598;-69
2023/04/28 10:27:49;;;;;;;1.67;1.13;;;18.60;75.70;;;;;;5040485;28;46107;-70
2023/04/28 10:30:18;;;;;;;1.42;1.20;;;18.60;75.60;;;;;;5037167;28;45509;-70
2023/04/28 10:32:48;;;;;;;1.30;1.00;;;18.60;75.70;;;;;;5040090;28;45454;-70
2023/04/28 10:35:41;;;;;;;1.35;1.00;;;18.60;76.50;;;;;;5039558;28;45536;-70
2023/04/28 10:38:10;;;;;;;0.75;0.75;;;18.60;75.60;;;;;;5040356;28;47128;-71
2023/04/28 10:40:38;;;;;;;1.70;1.13;;;18.60;75.60;;;;;;5040231;28;45258;-70
2023/04/28 10:43:06;;;;;;;2.60;1.00;;;18.60;75.70;;;;;;5039968;28;45224;-70
2023/04/28 10:46:13;;;;;;;1.55;1.10;;;18.60;75.90;;;;;;5038189;28;45422;-70
2023/04/28 10:48:57;;;;;;;1.63;1.23;;;18.60;76.10;;;;;;5036489;28;48278;-70
2023/04/28 10:51:32;;;;;;;1.92;0.98;;;18.60;76.30;;;;;;5039401;28;45552;-71
2023/04/28 10:54:08;;;;;;;1.52;0.98;;;18.60;76.30;;;;;;5039832;28;45388;-69
2023/04/28 10:56:34;;;;;;;1.73;1.20;;;18.60;76.30;;;;;;5039702;28;45313;-70
2023/04/28 10:59:21;;;;;;;1.20;0.80;;;18.60;76.40;;;;;;5039806;28;45490;-70
2023/04/28 11:01:48;;;;;;;2.15;1.10;;;18.60;76.90;;;;;;5039516;28;45431;-69
2023/04/28 11:04:16;;;;;;;2.67;1.15;;;18.60;77.00;;;;;;5036743;28;45390;-70
2023/04/28 11:06:44;;;;;;;1.08;0.88;;;18.60;77.00;;;;;;5042628;28;45472;-70
2023/04/28 11:09:48;;;;;;;1.23;0.98;;;18.60;77.00;;;;;;5039593;28;46372;-70
2023/04/28 11:12:15;;;;;;;0.80;0.80;;;18.60;76.80;;;;;;5039543;28;45505;-70
2023/04/28 11:14:42;;;;;;;1.00;0.90;;;18.60;77.00;;;;;;5035356;28;45468;-70
2023/04/28 11:17:12;;;;;;;1.00;0.90;;;18.60;76.80;;;;;;5031646;28;45303;-71
2023/04/28 11:19:42;;;;;;;1.00;0.80;;;18.60;76.60;;;;;;5039406;28;46336;-69
2023/04/28 11:22:15;;;;;;;1.00;0.80;;;18.60;77.00;;;;;;5035386;28;45228;-71
2023/04/28 11:24:42;;;;;;;3.05;1.02;;;18.60;76.80;;;;;;5038441;27;45470;-70
2023/04/28 11:27:09;;;;;;;1.58;0.90;;;18.60;77.00;;;;;;5031346;28;45419;-69
2023/04/28 11:29:37;;;;;;;1.02;0.90;;;18.60;76.90;;;;;;5039361;27;46155;-70
2023/04/28 11:32:05;;;;;;;0.73;0.73;;;18.60;77.00;;;;;;5039100;28;45301;-69
2023/04/28 11:34:32;;;;;;;1.58;0.98;;;18.60;77.00;;;;;;5039128;28;45312;-71
2023/04/28 11:37:00;;;;;;;1.90;0.82;;;18.60;77.00;;;;;;5039138;28;45197;-69
2023/04/28 11:39:28;;;;;;;1.13;1.00;;;18.60;77.10;;;;;;5035930;28;45454;-71
2023/04/28 11:41:55;;;;;;;1.20;1.10;;;18.60;77.00;;;;;;5038768;28;45356;-71
2023/04/28 11:44:24;;;;;;;1.05;0.77;;;18.60;77.00;;;;;;5038607;28;45389;-70
2023/04/28 11:46:54;;;;;;;1.23;0.80;;;18.60;77.00;;;;;;5038029;28;45226;-70
2023/04/28 11:49:23;;;;;;;0.70;0.70;;;18.60;77.00;;;;;;5039037;28;47716;-70
2023/04/28 11:51:51;;;;;;;1.08;0.80;;;18.60;77.00;;;;;;5038596;28;45259;-70
2023/04/28 11:54:23;;;;;;;1.50;0.88;;;18.60;77.00;;;;;;5038835;28;45324;-70
2023/04/28 11:56:50;;;;;;;0.75;0.70;;;18.60;77.00;;;;;;5038122;28;45246;-70
2023/04/28 11:59:19;;;;;;;0.93;0.80;;;18.60;77.00;;;;;;5039175;28;45317;-70
2023/04/28 12:01:48;;;;;;;0.85;0.80;;;18.60;77.00;;;;;;5038820;28;45445;-70
2023/04/28 12:04:14;;;;;;;1.23;0.95;;;18.70;77.10;;;;;;5038852;28;45381;-70
2023/04/28 12:06:41;;;;;;;0.68;0.60;;;18.70;77.10;;;;;;5038731;28;45583;-70
2023/04/28 12:09:20;;;;;;;0.80;0.70;;;18.60;77.00;;;;;;5030634;28;45405;-70
2023/04/28 12:11:59;;;;;;;0.60;0.60;;;18.70;77.10;;;;;;5037084;28;45688;-70
2023/04/28 12:14:26;;;;;;;0.60;0.60;;;18.70;77.10;;;;;;5034523;28;45267;-71
2023/04/28 12:16:52;;;;;;;1.08;0.70;;;18.70;77.10;;;;;;5038650;28;45472;-70
2023/04/28 12:19:20;;;;;;;1.60;0.77;;;18.70;77.10;;;;;;5038781;28;47235;-70
2023/04/28 12:22:02;;;;;;;0.70;0.70;;;18.70;77.10;;;;;;5038333;28;45307;-70
2023/04/28 12:24:29;;;;;;;1.23;0.65;;;18.70;78.10;;;;;;5036011;28;45363;-70
2023/04/28 12:27:14;;;;;;;0.65;0.65;;;18.60;77.00;;;;;;5039277;28;45293;-71
2023/04/28 12:29:42;;;;;;;1.20;0.80;;;18.60;77.00;;;;;;5038589;28;47338;-70
2023/04/28 12:32:10;;;;;;;0.70;0.60;;;18.60;77.00;;;;;;5041455;28;45286;-69
2023/04/28 12:34:39;;;;;;;1.23;0.75;;;18.60;77.00;;;;;;5040869;27;45262;-70
2023/04/28 12:37:06;;;;;;;0.63;0.63;;;18.60;77.00;;;;;;5041324;28;45333;-70
2023/04/28 12:39:35;;;;;;;0.90;0.75;;;18.60;77.00;;;;;;5041587;28;45323;-70
2023/04/28 12:42:05;;;;;;;0.50;0.50;;;18.70;77.10;;;;;;5041124;28;45953;-71
2023/04/28 12:44:35;;;;;;;1.30;0.90;;;18.60;77.00;;;;;;5041337;27;45357;-70
2023/04/28 12:47:03;;;;;;;0.93;0.55;;;18.70;77.10;;;;;;5037115;28;45269;-71
2023/04/28 12:49:30;;;;;;;0.70;0.70;;;18.70;77.10;;;;;;5042443;28;46341;-70
2023/04/28 12:51:57;;;;;;;0.57;0.55;;;18.70;77.10;;;;;;5041346;28;45338;-70